createdAt,value
2023-01-29T00:02:58.676Z,101462.77
2023-01-29T00:08:00.566Z,101455.66
2023-01-29T00:13:02.084Z,101451.99
2023-01-29T00:18:03.881Z,101446.76
2023-01-29T00:23:05.377Z,101443.96
2023-01-29T00:28:07.247Z,101436.26
2023-01-29T00:33:08.743Z,101422.48
2023-01-29T00:38:10.720Z,101422.45
2023-01-29T00:43:30.437Z,101416.66
2023-01-29T00:48:32.529Z,101408.42
2023-01-29T00:53:34.045Z,101405.07
2023-01-29T00:58:35.651Z,101409.98
2023-01-29T01:03:42.474Z,101406.11
2023-01-29T01:09:02.779Z,101412.73
2023-01-29T01:14:04.273Z,101408.05
2023-01-29T01:19:06.071Z,101403.52
2023-01-29T01:24:07.782Z,101396.44
2023-01-29T01:29:09.525Z,101387.39
2023-01-29T01:34:11.356Z,101379.42
2023-01-29T01:39:12.918Z,101389.94
2023-01-29T01:44:51.584Z,101383.39
2023-01-29T01:49:56.458Z,101373.83
2023-01-29T01:55:00.093Z,101367.48
2023-01-29T02:00:11.583Z,101368.90
2023-01-29T02:05:32.872Z,101376.44
2023-01-29T02:10:47.727Z,101370.63
2023-01-29T02:15:50.659Z,101371.51
2023-01-29T02:21:29.256Z,101375.48
2023-01-29T02:26:55.424Z,101377.23
2023-01-29T02:32:11.899Z,101371.88
2023-01-29T02:37:14.426Z,101375.58
2023-01-29T02:42:32.353Z,101373.52
2023-01-29T02:47:57.516Z,101363.20
2023-01-29T02:53:07.941Z,101363.16
2023-01-29T02:58:28.070Z,101360.10
2023-01-29T03:03:41.819Z,101356.27
2023-01-29T03:08:50.104Z,101359.02
2023-01-29T03:14:04.421Z,101361.65
2023-01-29T03:19:10.901Z,101348.60
2023-01-29T03:24:33.969Z,101347.89
2023-01-29T03:29:56.841Z,101338.39
2023-01-29T03:35:04.841Z,101327.52
2023-01-29T03:40:08.201Z,101332.44
2023-01-29T03:45:24.321Z,101323.90
2023-01-29T03:50:37.450Z,101320.65
2023-01-29T03:56:02.041Z,101329.09
2023-01-29T04:01:06.953Z,101332.04
2023-01-29T04:06:30.580Z,101336.30
2023-01-29T04:11:36.159Z,101328.29
2023-01-29T04:16:41.966Z,101321.85
2023-01-29T04:21:45.393Z,101319.88
2023-01-29T04:26:55.021Z,101323.79
2023-01-29T04:32:11.346Z,101318.38
2023-01-29T04:37:19.544Z,101312.20
2023-01-29T04:42:31.267Z,101305.17
2023-01-29T04:47:40.097Z,101297.69
2023-01-29T04:52:47.585Z,101298.88
2023-01-29T04:58:07.515Z,101289.88
2023-01-29T05:03:13.421Z,101284.44
2023-01-29T05:08:20.776Z,101278.52
2023-01-29T05:13:24.687Z,101274.48
2023-01-29T05:18:26.457Z,101274.59
2023-01-29T05:23:28.276Z,101280.80
2023-01-29T05:28:31.146Z,101287.11
2023-01-29T05:33:32.650Z,101286.35
2023-01-29T05:38:34.547Z,101274.42
2023-01-29T05:43:36.378Z,101270.23
2023-01-29T05:48:38.269Z,101262.46
2023-01-29T05:53:39.948Z,101263.20
2023-01-29T05:58:41.483Z,101262.27
2023-01-29T06:03:43.738Z,101260.47
2023-01-29T06:08:45.466Z,101264.27
2023-01-29T06:13:47.893Z,101263.39
2023-01-29T06:18:49.402Z,101258.00
2023-01-29T06:23:53.803Z,101255.69
2023-01-29T06:28:55.438Z,101262.78
2023-01-29T06:33:57.117Z,101267.22
2023-01-29T06:38:58.621Z,101266.34
2023-01-29T06:44:00.249Z,101267.67
2023-01-29T06:49:01.821Z,101282.08
2023-01-29T06:54:03.522Z,101274.61
2023-01-29T06:59:05.859Z,101270.73
2023-01-29T07:04:07.675Z,101276.90
2023-01-29T07:09:12.769Z,101278.02
2023-01-29T07:14:14.800Z,101285.46
2023-01-29T07:19:16.317Z,101288.07
2023-01-29T07:24:19.479Z,101277.77
2023-01-29T07:29:21.101Z,101259.35
2023-01-29T07:34:22.576Z,101249.72
2023-01-29T07:39:24.092Z,101255.10
2023-01-29T07:44:25.564Z,101262.48
2023-01-29T07:49:27.049Z,101255.50
2023-01-29T07:54:28.852Z,101264.92
2023-01-29T07:59:31.183Z,101264.75
2023-01-29T08:04:32.683Z,101268.90
2023-01-29T08:09:34.338Z,101263.41
2023-01-29T08:14:36.087Z,101252.29
2023-01-29T08:19:37.588Z,101247.98
2023-01-29T08:24:53.324Z,101247.52
2023-01-29T08:29:56.117Z,101244.84
2023-01-29T08:34:57.712Z,101241.11
2023-01-29T08:39:59.484Z,101232.51
2023-01-29T08:45:01.010Z,101229.89
2023-01-29T08:50:02.786Z,101229.17
2023-01-29T08:55:04.656Z,101234.16
2023-01-29T09:00:07.971Z,101229.50
2023-01-29T09:05:10.219Z,101224.30
2023-01-29T09:10:12.350Z,101222.66
2023-01-29T09:15:13.924Z,101213.16
2023-01-29T09:20:15.991Z,101212.13
2023-01-29T09:25:17.936Z,101206.78
2023-01-29T09:30:19.788Z,101194.03
2023-01-29T09:35:23.038Z,101179.20
2023-01-29T09:40:45.731Z,101163.15
2023-01-29T09:45:58.647Z,101144.70
2023-01-29T09:51:06.598Z,101138.83
2023-01-29T09:56:18.578Z,101139.27
2023-01-29T10:01:29.561Z,101129.34
2023-01-29T10:06:47.669Z,101122.60
2023-01-29T10:12:28.317Z,101125.94
2023-01-29T10:17:54.096Z,101125.99
2023-01-29T10:23:12.819Z,101117.19
2023-01-29T10:28:18.700Z,101109.40
2023-01-29T10:33:49.372Z,101103.78
2023-01-29T10:38:56.393Z,101106.08
2023-01-29T10:44:05.476Z,101099.77
2023-01-29T10:49:37.903Z,101093.76
2023-01-29T10:55:15.227Z,101093.35
2023-01-29T11:00:25.003Z,101083.73
2023-01-29T11:05:33.100Z,101078.86
2023-01-29T11:10:42.008Z,101071.77
2023-01-29T11:15:43.889Z,101070.48
2023-01-29T11:20:47.117Z,101058.41
2023-01-29T11:25:53.674Z,101053.73
2023-01-29T11:30:55.517Z,101045.45
2023-01-29T11:35:58.104Z,101038.39
2023-01-29T11:41:18.834Z,101035.81
2023-01-29T11:46:20.868Z,101027.76
2023-01-29T11:51:27.088Z,101012.76
2023-01-29T11:56:49.221Z,100998.70
2023-01-29T12:01:50.821Z,100992.80
2023-01-29T12:06:54.063Z,100993.15
2023-01-29T12:11:56.217Z,100980.12
2023-01-29T12:17:11.731Z,100973.45
2023-01-29T12:22:31.404Z,100975.42
2023-01-29T12:27:48.083Z,100962.33
2023-01-29T12:32:55.623Z,100947.71
2023-01-29T12:38:20.351Z,100938.88
2023-01-29T12:43:27.593Z,100936.88
2023-01-29T12:48:34.466Z,100939.65
2023-01-29T12:53:42.216Z,100939.91
2023-01-29T12:58:51.424Z,100932.20
2023-01-29T13:04:02.726Z,100927.38
2023-01-29T13:09:09.967Z,100912.99
2023-01-29T13:14:33.348Z,100904.23
2023-01-29T13:19:40.484Z,100908.40
2023-01-29T13:24:55.508Z,100912.98
2023-01-29T13:30:06.128Z,100917.89
2023-01-29T13:35:14.941Z,100923.63
2023-01-29T13:40:25.803Z,100924.27
2023-01-29T13:45:35.109Z,100923.45
2023-01-29T13:50:40.385Z,100923.88
2023-01-29T13:55:41.967Z,100925.07
2023-01-29T14:00:43.625Z,100921.27
2023-01-29T14:05:58.434Z,100904.38
2023-01-29T14:11:15.403Z,100892.52
2023-01-29T14:16:16.932Z,100886.85
2023-01-29T14:21:31.844Z,100888.02
2023-01-29T14:26:43.681Z,100893.56
2023-01-29T14:31:51.101Z,100912.91
2023-01-29T14:36:56.768Z,100929.00
2023-01-29T14:41:59.837Z,100933.64
2023-01-29T14:47:01.357Z,100930.44
2023-01-29T14:52:03.772Z,100921.09
2023-01-29T14:57:09.048Z,100922.91
2023-01-29T15:02:38.426Z,100910.94
2023-01-29T15:07:49.530Z,100895.77
2023-01-29T15:13:17.799Z,100888.80
2023-01-29T15:18:43.893Z,100892.05
2023-01-29T15:23:48.907Z,100904.24
2023-01-29T15:29:04.156Z,100902.31
2023-01-29T15:34:07.741Z,100890.43
2023-01-29T15:39:09.244Z,100897.98
2023-01-29T15:44:16.820Z,100891.02
2023-01-29T15:49:38.003Z,100890.08
2023-01-29T15:54:39.727Z,100876.17
2023-01-29T15:59:44.986Z,100875.33
2023-01-29T16:04:46.837Z,100870.73
2023-01-29T16:09:49.859Z,100864.95
2023-01-29T16:14:52.584Z,100859.90
2023-01-29T16:20:01.401Z,100866.25
2023-01-29T16:25:12.504Z,100862.88
2023-01-29T16:30:16.538Z,100872.46
2023-01-29T16:35:19.082Z,100871.48
2023-01-29T16:40:27.219Z,100867.16
2023-01-29T16:45:29.609Z,100869.00
2023-01-29T16:50:40.671Z,100865.19
2023-01-29T16:55:49.659Z,100869.29
2023-01-29T17:01:13.706Z,100861.06
2023-01-29T17:06:26.644Z,100861.15
2023-01-29T17:11:31.213Z,100874.70
2023-01-29T17:16:36.210Z,100872.20
2023-01-29T17:21:37.737Z,100867.06
2023-01-29T17:26:40.017Z,100861.75
2023-01-29T17:31:42.864Z,100847.20
2023-01-29T17:36:45.154Z,100838.10
2023-01-29T17:41:52.651Z,100828.18
2023-01-29T17:46:55.711Z,100825.50
2023-01-29T17:51:57.706Z,100808.88
2023-01-29T17:56:59.571Z,100800.09
2023-01-29T18:02:01.220Z,100793.35
2023-01-29T18:07:02.806Z,100787.00
2023-01-29T18:12:10.297Z,100768.33
2023-01-29T18:17:11.842Z,100764.02
2023-01-29T18:22:14.049Z,100758.80
2023-01-29T18:27:15.752Z,100746.35
2023-01-29T18:32:17.642Z,100733.07
2023-01-29T18:37:19.341Z,100722.84
2023-01-29T18:42:21.068Z,100717.72
2023-01-29T18:47:23.718Z,100722.76
2023-01-29T18:52:26.191Z,100718.30
2023-01-29T18:58:28.577Z,100714.42
2023-01-29T19:02:50.804Z,100715.36
2023-01-29T19:07:52.468Z,100711.33
2023-01-29T19:12:54.157Z,100706.70
2023-01-29T19:17:56.454Z,100704.50
2023-01-29T19:22:58.329Z,100698.44
2023-01-29T19:27:59.957Z,100695.79
2023-01-29T19:33:01.615Z,100695.28
2023-01-29T19:38:04.698Z,100695.90
2023-01-29T19:43:06.436Z,100696.05
2023-01-29T19:48:08.304Z,100691.14
2023-01-29T19:53:10.051Z,100681.87
2023-01-29T19:58:11.616Z,100673.23
2023-01-29T20:03:15.356Z,100672.89
2023-01-29T20:08:17.563Z,100670.19
2023-01-29T20:13:19.568Z,100671.13
2023-01-29T20:18:21.784Z,100663.45
2023-01-29T20:23:37.291Z,100652.96
2023-01-29T20:28:39.840Z,100641.54
2023-01-29T20:33:41.878Z,100636.49
2023-01-29T20:38:43.450Z,100631.45
2023-01-29T20:43:46.915Z,100626.20
2023-01-29T20:48:49.477Z,100619.02
2023-01-29T20:53:51.385Z,100610.20
2023-01-29T20:58:53.068Z,100600.52
2023-01-29T21:03:54.544Z,100589.34
2023-01-29T21:08:56.095Z,100586.16
2023-01-29T21:13:57.895Z,100574.63
2023-01-29T21:19:00.032Z,100573.77
2023-01-29T21:24:01.624Z,100567.29
2023-01-29T21:29:03.170Z,100564.72
2023-01-29T21:34:05.217Z,100561.14
2023-01-29T21:39:16.805Z,100559.45
2023-01-29T21:44:18.319Z,100559.45
2023-01-29T21:49:19.964Z,100557.93
2023-01-29T21:54:21.479Z,100553.41
2023-01-29T21:59:24.069Z,100548.33
2023-01-29T22:04:26.645Z,100540.66
2023-01-29T22:09:28.176Z,100537.71
2023-01-29T22:14:29.753Z,100528.67
2023-01-29T22:19:31.262Z,100517.28
2023-01-29T22:24:33.047Z,100510.50
2023-01-29T22:29:35.045Z,100503.71
2023-01-29T22:34:36.995Z,100494.90
2023-01-29T22:39:38.492Z,100472.69
2023-01-29T22:44:40.352Z,100463.36
2023-01-29T22:49:42.775Z,100454.56
2023-01-29T22:54:44.536Z,100435.27
2023-01-29T22:59:46.094Z,100422.36
2023-01-29T23:04:47.645Z,100412.72
2023-01-29T23:09:49.178Z,100401.36
2023-01-29T23:14:50.679Z,100389.52
2023-01-29T23:19:52.191Z,100382.06
2023-01-29T23:24:53.722Z,100370.70
2023-01-29T23:29:55.334Z,100361.91
2023-01-29T23:34:57.115Z,100352.41
2023-01-29T23:39:58.603Z,100344.96
2023-01-29T23:45:00.144Z,100341.07
2023-01-29T23:50:01.796Z,100334.96
2023-01-29T23:55:05.035Z,100325.96
